Time;durP1;ratioP1;P1;durP2;ratioP2;P2;SDS_P1;SDS_P2;PMS_P1;PMS_P2;Temp;Humidity;BMP_temperature;BMP_pressure;BME280_temperature;BME280_humidity;BME280_pressure;Samples;Min_cycle;Max_cycle;Signal;HPM_P1;HPM_P2
2024/01/28 00:17:56;;;;;;;17.92;8.30;;;;;;;;;;5335473;23;20217;-83
2024/01/28 02:04:46;;;;;;;14.43;8.23;;;;;;;;;;4925902;29;20221;-83
2024/01/28 02:07:14;;;;;;;13.98;8.32;;;;;;;;;;4902198;29;20221;-82
2024/01/28 02:09:42;;;;;;;16.95;8.77;;;;;;;;;;4903012;29;20187;-81
2024/01/28 02:12:11;;;;;;;14.30;7.57;;;;;;;;;;4911897;29;20198;-81
2024/01/28 02:14:39;;;;;;;17.70;8.98;;;;;;;;;;4912354;29;20205;-82
2024/01/28 02:17:08;;;;;;;11.50;7.88;;;;;;;;;;4890048;29;20233;-81
2024/01/28 02:19:36;;;;;;;17.25;8.60;;;;;;;;;;4906051;29;20245;-83
2024/01/28 02:22:06;;;;;;;18.45;8.75;;;;;;;;;;4923066;23;20242;-80
2024/01/28 02:24:35;;;;;;;12.88;8.90;;;;;;;;;;4903916;29;20238;-81
2024/01/28 02:27:03;;;;;;;17.63;7.75;;;;;;;;;;4912311;29;20210;-81
2024/01/28 02:29:32;;;;;;;14.07;8.60;;;;;;;;;;4917497;29;20202;-80
2024/01/28 02:32:00;;;;;;;17.40;9.60;;;;;;;;;;4925352;29;20515;-81
2024/01/28 02:34:28;;;;;;;21.05;8.50;;;;;;;;;;4925686;29;20218;-81
2024/01/28 02:36:56;;;;;;;12.98;8.60;;;;;;;;;;4925329;29;20217;-81
2024/01/28 02:39:25;;;;;;;17.63;8.10;;;;;;;;;;4925256;29;20523;-81
2024/01/28 02:41:54;;;;;;;13.55;8.15;;;;;;;;;;4925148;29;20186;-81
2024/01/28 02:44:23;;;;;;;20.02;9.38;;;;;;;;;;4925442;29;20226;-82
2024/01/28 02:46:51;;;;;;;16.88;8.25;;;;;;;;;;4890207;29;20230;-81
2024/01/28 02:49:20;;;;;;;11.95;7.93;;;;;;;;;;4890675;29;20206;-81
2024/01/28 02:51:48;;;;;;;15.10;7.50;;;;;;;;;;4889962;29;20218;-82
2024/01/28 02:54:17;;;;;;;12.55;8.20;;;;;;;;;;4904378;29;20225;-81
2024/01/28 02:56:45;;;;;;;18.13;8.32;;;;;;;;;;4896686;29;20209;-81
2024/01/28 02:59:15;;;;;;;17.67;8.32;;;;;;;;;;4924783;29;20171;-82
2024/01/28 03:01:46;;;;;;;18.92;8.27;;;;;;;;;;4924120;29;20186;-81
2024/01/28 03:04:14;;;;;;;14.60;7.60;;;;;;;;;;4922496;29;20317;-82
2024/01/28 03:06:43;;;;;;;17.30;8.35;;;;;;;;;;4916508;29;20245;-81
2024/01/28 03:09:11;;;;;;;14.20;8.55;;;;;;;;;;4906741;29;20225;-81
2024/01/28 03:11:40;;;;;;;19.75;8.80;;;;;;;;;;4892415;29;20249;-81
2024/01/28 03:14:08;;;;;;;29.63;7.55;;;;;;;;;;4908883;29;20202;-81
2024/01/28 03:16:38;;;;;;;17.08;7.78;;;;;;;;;;4924727;29;20214;-82
2024/01/28 03:19:06;;;;;;;16.58;8.55;;;;;;;;;;4908377;29;20214;-81
2024/01/28 03:21:35;;;;;;;16.70;8.23;;;;;;;;;;4918712;29;20257;-82
2024/01/28 03:24:03;;;;;;;22.13;10.27;;;;;;;;;;4889894;29;20233;-81
2024/01/28 03:26:34;;;;;;;12.45;6.80;;;;;;;;;;4924864;29;20270;-82
2024/01/28 03:29:02;;;;;;;14.57;8.45;;;;;;;;;;4918925;29;20214;-82
2024/01/28 03:31:30;;;;;;;18.95;8.30;;;;;;;;;;4909673;29;20182;-81
2024/01/28 03:34:00;;;;;;;15.00;8.15;;;;;;;;;;4924394;29;20210;-81
2024/01/28 03:36:28;;;;;;;17.77;8.10;;;;;;;;;;4908186;29;20249;-81
2024/01/28 03:38:56;;;;;;;11.63;7.38;;;;;;;;;;4935021;29;20207;-83
2024/01/28 03:41:25;;;;;;;16.25;8.25;;;;;;;;;;4940150;29;20232;-81
2024/01/28 03:43:53;;;;;;;13.75;7.82;;;;;;;;;;4943419;29;20251;-81
2024/01/28 03:46:21;;;;;;;15.80;7.13;;;;;;;;;;4893437;29;20221;-81
2024/01/28 03:48:49;;;;;;;25.48;10.38;;;;;;;;;;4892658;29;20226;-81
2024/01/28 03:51:19;;;;;;;13.27;9.23;;;;;;;;;;4924182;29;20202;-81
2024/01/28 03:53:47;;;;;;;18.65;7.72;;;;;;;;;;4923980;29;20258;-82
2024/01/28 03:56:16;;;;;;;17.15;7.88;;;;;;;;;;4934067;29;20221;-81
2024/01/28 03:58:44;;;;;;;17.85;8.70;;;;;;;;;;4942970;29;20247;-81
2024/01/28 04:01:12;;;;;;;13.95;8.25;;;;;;;;;;4918570;29;20187;-82
2024/01/28 04:03:40;;;;;;;18.20;8.93;;;;;;;;;;4921057;29;20249;-81
2024/01/28 04:06:09;;;;;;;16.27;9.18;;;;;;;;;;4895442;29;20305;-81
2024/01/28 04:08:38;;;;;;;19.02;7.95;;;;;;;;;;4905063;29;20183;-81
2024/01/28 04:11:07;;;;;;;16.85;8.60;;;;;;;;;;4905180;29;20600;-82
2024/01/28 04:13:35;;;;;;;15.40;7.75;;;;;;;;;;4904399;29;20214;-81
2024/01/28 04:16:03;;;;;;;15.63;10.93;;;;;;;;;;4928108;29;20186;-81
2024/01/28 04:18:31;;;;;;;25.08;8.95;;;;;;;;;;4926361;29;20225;-81
2024/01/28 04:20:59;;;;;;;19.35;9.15;;;;;;;;;;4916723;29;20230;-82
2024/01/28 04:23:28;;;;;;;18.13;10.68;;;;;;;;;;4935787;28;20217;-82
2024/01/28 04:25:57;;;;;;;20.08;8.52;;;;;;;;;;4923142;29;20246;-82
2024/01/28 04:28:26;;;;;;;20.48;9.75;;;;;;;;;;4922995;29;20238;-82
2024/01/28 04:30:54;;;;;;;24.95;9.45;;;;;;;;;;4932374;28;20177;-81
2024/01/28 04:33:22;;;;;;;12.00;7.82;;;;;;;;;;4910537;28;20284;-82
2024/01/28 04:35:50;;;;;;;15.07;9.07;;;;;;;;;;4942315;28;20189;-81
2024/01/28 04:38:19;;;;;;;15.48;8.07;;;;;;;;;;4891225;29;20275;-81
2024/01/28 04:40:47;;;;;;;18.17;8.02;;;;;;;;;;4904041;29;20199;-82
2024/01/28 04:43:17;;;;;;;15.80;8.50;;;;;;;;;;4888672;29;20214;-81
2024/01/28 04:45:45;;;;;;;12.65;9.00;;;;;;;;;;4905722;28;20260;-81
2024/01/28 04:48:13;;;;;;;17.38;7.97;;;;;;;;;;4909693;29;20218;-82
2024/01/28 04:50:42;;;;;;;17.88;8.55;;;;;;;;;;4883931;29;20218;-81
2024/01/28 04:53:10;;;;;;;17.70;9.27;;;;;;;;;;4903923;29;20237;-81
2024/01/28 04:55:38;;;;;;;16.60;8.85;;;;;;;;;;4913447;28;20251;-82
2024/01/28 04:58:07;;;;;;;18.00;10.43;;;;;;;;;;4942201;28;20185;-82
2024/01/28 05:00:37;;;;;;;13.55;8.40;;;;;;;;;;4925453;28;20213;-83
2024/01/28 05:03:05;;;;;;;13.73;7.97;;;;;;;;;;4941008;28;20220;-82
2024/01/28 05:05:34;;;;;;;17.80;10.18;;;;;;;;;;4895934;29;20283;-82
2024/01/28 05:08:02;;;;;;;19.55;9.20;;;;;;;;;;4903678;29;20226;-82
2024/01/28 05:10:31;;;;;;;15.13;8.90;;;;;;;;;;4914544;29;20218;-82
2024/01/28 05:12:59;;;;;;;17.08;10.35;;;;;;;;;;4922787;29;20190;-82
2024/01/28 05:15:27;;;;;;;13.23;8.52;;;;;;;;;;4912506;28;20201;-82
2024/01/28 05:17:57;;;;;;;19.58;9.10;;;;;;;;;;4910136;28;20220;-82
2024/01/28 05:20:25;;;;;;;13.55;7.85;;;;;;;;;;4906006;29;20244;-83
2024/01/28 05:22:55;;;;;;;20.58;9.27;;;;;;;;;;4903523;29;20230;-82
2024/01/28 05:25:23;;;;;;;13.60;8.00;;;;;;;;;;4896640;29;20217;-82
2024/01/28 05:27:51;;;;;;;15.70;9.20;;;;;;;;;;4917171;29;20218;-82
2024/01/28 05:30:19;;;;;;;21.40;9.15;;;;;;;;;;4915110;29;20229;-82
2024/01/28 05:32:48;;;;;;;16.95;8.80;;;;;;;;;;4888360;29;20225;-82
2024/01/28 05:35:17;;;;;;;14.98;9.10;;;;;;;;;;4904686;29;20213;-82
2024/01/28 05:37:46;;;;;;;23.60;8.77;;;;;;;;;;4908281;29;20218;-82
2024/01/28 05:40:14;;;;;;;14.63;9.18;;;;;;;;;;4900361;29;20214;-82
2024/01/28 05:42:43;;;;;;;15.25;8.55;;;;;;;;;;4903304;29;20223;-82
2024/01/28 05:45:11;;;;;;;22.98;10.15;;;;;;;;;;4908552;29;20256;-82
2024/01/28 05:47:39;;;;;;;15.63;9.25;;;;;;;;;;4914476;29;20194;-82
2024/01/28 05:50:08;;;;;;;18.45;9.10;;;;;;;;;;4905826;29;20210;-82
2024/01/28 05:52:37;;;;;;;14.93;8.52;;;;;;;;;;4910648;29;20179;-82
2024/01/28 05:55:07;;;;;;;15.55;7.90;;;;;;;;;;4908665;29;20185;-83
2024/01/28 05:57:35;;;;;;;16.05;9.70;;;;;;;;;;4940746;29;20204;-82
2024/01/28 06:00:06;;;;;;;19.42;8.88;;;;;;;;;;4924444;29;20213;-82
2024/01/28 06:02:38;;;;;;;13.20;7.47;;;;;;;;;;4928802;29;20215;-83
2024/01/28 06:05:07;;;;;;;15.13;8.32;;;;;;;;;;4962328;24;20274;-81
2024/01/28 06:07:38;;;;;;;15.65;8.35;;;;;;;;;;4943161;28;20208;-81
2024/01/28 06:10:08;;;;;;;11.90;8.23;;;;;;;;;;4943427;28;20216;-82
2024/01/28 06:12:36;;;;;;;16.23;9.10;;;;;;;;;;4947850;28;20225;-81
2024/01/28 06:15:08;;;;;;;15.40;7.63;;;;;;;;;;4926925;29;20260;-82
2024/01/28 06:17:36;;;;;;;16.88;11.77;;;;;;;;;;4958889;29;20208;-81
2024/01/28 06:20:05;;;;;;;16.58;9.73;;;;;;;;;;4947938;28;20274;-81
2024/01/28 06:22:33;;;;;;;17.25;9.23;;;;;;;;;;4940134;29;20189;-81
2024/01/28 06:25:03;;;;;;;17.20;9.90;;;;;;;;;;4940581;29;20236;-81
2024/01/28 06:27:36;;;;;;;13.55;8.88;;;;;;;;;;4984551;23;20221;-85
2024/01/28 06:30:05;;;;;;;14.82;10.00;;;;;;;;;;4984975;23;20245;-81
2024/01/28 06:32:33;;;;;;;16.52;9.00;;;;;;;;;;4920597;29;20193;-82
2024/01/28 06:35:03;;;;;;;14.05;8.27;;;;;;;;;;4919658;29;20230;-82
2024/01/28 06:37:56;;;;;;;16.33;9.50;;;;;;;;;;4983545;23;20250;-81
2024/01/28 06:40:26;;;;;;;13.63;9.80;;;;;;;;;;4874112;29;20238;-81
2024/01/28 06:45:50;;;;;;;15.90;9.75;;;;;;;;;;5775331;23;20219;-84
2024/01/28 06:48:18;;;;;;;19.80;9.88;;;;;;;;;;4937869;29;20194;-83
2024/01/28 06:50:47;;;;;;;14.13;9.75;;;;;;;;;;4905157;29;20221;-83
2024/01/28 07:11:27;;;;;;;16.00;10.32;;;;;;;;;;4805326;27;20244;-82
2024/01/28 07:13:55;;;;;;;16.40;10.27;;;;;;;;;;4918790;29;20213;-81
2024/01/28 07:16:23;;;;;;;12.75;8.30;;;;;;;;;;4943413;29;20186;-82
2024/01/28 07:18:53;;;;;;;15.35;9.75;;;;;;;;;;4943015;29;20217;-83
2024/01/28 07:21:23;;;;;;;15.45;9.27;;;;;;;;;;4943678;29;20181;-82
2024/01/28 07:23:53;;;;;;;24.02;9.82;;;;;;;;;;4939600;29;20324;-82
2024/01/28 07:26:21;;;;;;;24.73;11.68;;;;;;;;;;4918775;29;20243;-82
2024/01/28 07:28:51;;;;;;;16.48;10.70;;;;;;;;;;4923940;29;20217;-82
2024/01/28 07:31:19;;;;;;;19.40;12.68;;;;;;;;;;4926750;29;20217;-82
2024/01/28 07:33:49;;;;;;;23.05;11.07;;;;;;;;;;4943234;29;20788;-84
2024/01/28 07:48:51;;;;;;;15.70;10.13;;;;;;;;;;5042954;23;20210;-83
2024/01/28 07:51:21;;;;;;;11.35;8.80;;;;;;;;;;4922375;29;20194;-83
2024/01/28 07:53:49;;;;;;;19.02;10.65;;;;;;;;;;4921765;29;20210;-83
2024/01/28 07:56:18;;;;;;;10.65;8.93;;;;;;;;;;4920231;29;20218;-84
2024/01/28 07:58:46;;;;;;;24.40;10.70;;;;;;;;;;4917727;29;20233;-85
2024/01/28 08:01:14;;;;;;;25.63;9.88;;;;;;;;;;4910018;29;20221;-84
2024/01/28 08:03:43;;;;;;;11.82;8.32;;;;;;;;;;4925922;29;20292;-85
2024/01/28 08:06:12;;;;;;;17.42;9.70;;;;;;;;;;4880674;29;20310;-85
2024/01/28 08:08:41;;;;;;;15.48;8.70;;;;;;;;;;4892340;29;20206;-84
2024/01/28 08:11:09;;;;;;;20.13;9.25;;;;;;;;;;4875931;29;20346;-84
2024/01/28 08:13:37;;;;;;;13.02;8.32;;;;;;;;;;4894539;29;20292;-85
2024/01/28 08:16:06;;;;;;;14.55;9.30;;;;;;;;;;4893434;29;20227;-85
2024/01/28 08:18:34;;;;;;;14.88;9.10;;;;;;;;;;4907510;29;20277;-83
2024/01/28 08:21:03;;;;;;;16.15;9.77;;;;;;;;;;4888091;29;20294;-83
2024/01/28 08:23:33;;;;;;;15.60;9.73;;;;;;;;;;4898969;29;20281;-84
2024/01/28 08:26:01;;;;;;;14.05;9.38;;;;;;;;;;4894726;29;20290;-84
2024/01/28 08:28:30;;;;;;;13.40;8.73;;;;;;;;;;4901466;29;20225;-84
2024/01/28 08:30:58;;;;;;;15.82;9.23;;;;;;;;;;4915792;29;20230;-84
2024/01/28 08:33:26;;;;;;;17.30;9.82;;;;;;;;;;4908909;29;20237;-83
2024/01/28 08:35:54;;;;;;;15.88;10.73;;;;;;;;;;4915098;29;20653;-84
2024/01/28 08:38:23;;;;;;;18.13;9.40;;;;;;;;;;4906717;29;20626;-84
2024/01/28 08:40:53;;;;;;;25.25;12.40;;;;;;;;;;4898424;29;20240;-84
2024/01/28 08:43:21;;;;;;;19.20;11.30;;;;;;;;;;4906326;29;20284;-84
2024/01/28 08:45:49;;;;;;;20.88;11.95;;;;;;;;;;4901264;29;20237;-83
2024/01/28 08:48:18;;;;;;;24.38;13.48;;;;;;;;;;4911944;29;20275;-83
2024/01/28 08:50:48;;;;;;;17.00;9.57;;;;;;;;;;4898228;29;20230;-83
2024/01/28 08:53:17;;;;;;;21.90;10.80;;;;;;;;;;4879731;29;20608;-83
2024/01/28 08:55:45;;;;;;;18.33;9.90;;;;;;;;;;4895930;29;20203;-83
2024/01/28 08:58:16;;;;;;;15.30;10.65;;;;;;;;;;4897428;29;20192;-84
2024/01/28 09:00:44;;;;;;;16.05;10.60;;;;;;;;;;4898123;29;20217;-84
2024/01/28 09:03:12;;;;;;;20.52;11.63;;;;;;;;;;4901233;29;20221;-83
2024/01/28 09:05:40;;;;;;;14.52;9.15;;;;;;;;;;4914728;29;20241;-82
2024/01/28 09:08:08;;;;;;;17.13;10.90;;;;;;;;;;4903590;29;20191;-82
2024/01/28 09:10:36;;;;;;;14.85;9.02;;;;;;;;;;4917966;29;20211;-82
2024/01/28 09:13:05;;;;;;;18.90;8.68;;;;;;;;;;4903691;29;20217;-84
2024/01/28 09:15:34;;;;;;;15.90;7.63;;;;;;;;;;4900010;29;20195;-83
2024/01/28 09:18:04;;;;;;;12.27;8.05;;;;;;;;;;4882988;29;20214;-82
2024/01/28 09:20:32;;;;;;;16.48;8.73;;;;;;;;;;4881564;29;20218;-82
2024/01/28 09:23:03;;;;;;;12.73;8.43;;;;;;;;;;4900008;29;20203;-81
2024/01/28 09:25:32;;;;;;;14.65;7.50;;;;;;;;;;4901928;29;20189;-83
2024/01/28 09:28:00;;;;;;;14.70;9.07;;;;;;;;;;4891996;29;20198;-83
2024/01/28 09:30:29;;;;;;;16.20;7.57;;;;;;;;;;4902299;29;20181;-82
2024/01/28 09:32:58;;;;;;;13.00;8.00;;;;;;;;;;4903111;29;20215;-82
2024/01/28 09:35:26;;;;;;;12.10;8.15;;;;;;;;;;4889059;29;20205;-82
2024/01/28 09:37:55;;;;;;;12.93;8.70;;;;;;;;;;4887769;29;20207;-82
2024/01/28 09:40:23;;;;;;;11.30;7.03;;;;;;;;;;4903543;29;20201;-83
2024/01/28 09:42:54;;;;;;;14.57;9.25;;;;;;;;;;4890936;29;20226;-83
2024/01/28 09:48:19;;;;;;;12.65;7.93;;;;;;;;;;5051568;23;20232;-83
2024/01/28 09:50:47;;;;;;;12.45;8.32;;;;;;;;;;4941466;29;20192;-84
2024/01/28 09:53:16;;;;;;;10.90;7.95;;;;;;;;;;4932989;29;20263;-83
2024/01/28 09:55:44;;;;;;;15.50;7.60;;;;;;;;;;4936839;29;20181;-83
2024/01/28 09:58:12;;;;;;;12.68;8.10;;;;;;;;;;4951734;28;20191;-83
2024/01/28 10:00:41;;;;;;;15.35;9.52;;;;;;;;;;4950799;28;20233;-82
2024/01/28 10:03:09;;;;;;;10.73;6.97;;;;;;;;;;4952009;29;20231;-84
2024/01/28 10:05:39;;;;;;;13.00;8.40;;;;;;;;;;4939995;29;20232;-83
2024/01/28 10:08:08;;;;;;;12.98;8.00;;;;;;;;;;4949128;29;20296;-84
2024/01/28 10:10:36;;;;;;;16.70;7.90;;;;;;;;;;4921128;29;20213;-84
2024/01/28 10:13:05;;;;;;;14.35;8.85;;;;;;;;;;4920888;29;20224;-84
2024/01/28 10:15:33;;;;;;;11.23;7.55;;;;;;;;;;4922985;29;20212;-84
2024/01/28 10:18:02;;;;;;;14.38;8.45;;;;;;;;;;4940540;28;20216;-83
2024/01/28 10:20:31;;;;;;;15.93;9.00;;;;;;;;;;4908316;29;20189;-83
2024/01/28 10:23:02;;;;;;;14.35;8.90;;;;;;;;;;4916466;29;20232;-83
2024/01/28 10:25:31;;;;;;;15.07;9.00;;;;;;;;;;4935400;29;20241;-82
2024/01/28 10:28:02;;;;;;;20.95;8.73;;;;;;;;;;4922688;29;20247;-82
2024/01/28 10:30:30;;;;;;;14.90;8.32;;;;;;;;;;4927250;29;20244;-83
2024/01/28 10:32:58;;;;;;;11.82;8.63;;;;;;;;;;4902266;29;20229;-83
2024/01/28 10:35:26;;;;;;;11.88;8.18;;;;;;;;;;4932783;29;20233;-82
2024/01/28 10:37:55;;;;;;;12.68;8.10;;;;;;;;;;4917036;29;20251;-83
2024/01/28 10:40:26;;;;;;;10.15;8.40;;;;;;;;;;4928223;29;20236;-82
2024/01/28 10:42:57;;;;;;;10.52;7.95;;;;;;;;;;4941778;29;20224;-82
2024/01/28 10:45:25;;;;;;;13.63;8.05;;;;;;;;;;4950119;28;20232;-83
2024/01/28 10:47:54;;;;;;;16.10;8.68;;;;;;;;;;4915129;29;20307;-84
2024/01/28 10:50:23;;;;;;;12.70;9.10;;;;;;;;;;4935192;29;20213;-84
2024/01/28 10:52:52;;;;;;;26.33;8.82;;;;;;;;;;4934588;29;20189;-83
2024/01/28 10:55:22;;;;;;;14.02;7.80;;;;;;;;;;4934007;29;20233;-84
2024/01/28 10:57:53;;;;;;;17.70;7.82;;;;;;;;;;4933931;29;20307;-83
2024/01/28 11:00:21;;;;;;;9.55;8.63;;;;;;;;;;4921701;29;20233;-84
2024/01/28 11:03:19;;;;;;;16.65;8.82;;;;;;;;;;4931240;29;20315;-86
2024/01/28 11:06:07;;;;;;;12.57;9.30;;;;;;;;;;4893765;29;20252;-85
2024/01/28 11:08:36;;;;;;;13.43;8.85;;;;;;;;;;4917971;29;20220;-83
2024/01/28 11:11:12;;;;;;;11.35;10.43;;;;;;;;;;4900852;29;20219;-83
2024/01/28 11:13:46;;;;;;;18.17;11.30;;;;;;;;;;4906443;29;20205;-84
2024/01/28 11:16:15;;;;;;;12.32;11.27;;;;;;;;;;4911124;29;20202;-83
2024/01/28 11:19:03;;;;;;;11.98;10.80;;;;;;;;;;4934049;29;20647;-83
2024/01/28 11:21:33;;;;;;;14.75;13.50;;;;;;;;;;4920526;29;20237;-83
2024/01/28 11:24:06;;;;;;;15.07;13.10;;;;;;;;;;4907763;29;20241;-84
2024/01/28 11:26:37;;;;;;;14.98;13.75;;;;;;;;;;4914683;29;20219;-84
2024/01/28 11:29:10;;;;;;;15.20;13.90;;;;;;;;;;4925654;29;20205;-83
2024/01/28 11:31:40;;;;;;;14.70;13.52;;;;;;;;;;4905240;29;20201;-82
2024/01/28 11:34:20;;;;;;;14.27;13.18;;;;;;;;;;4894283;29;20204;-82
2024/01/28 11:36:51;;;;;;;23.98;17.92;;;;;;;;;;4908024;29;20696;-83
2024/01/28 11:39:29;;;;;;;16.50;15.13;;;;;;;;;;4929410;29;20216;-83
2024/01/28 11:41:58;;;;;;;18.45;16.55;;;;;;;;;;4919346;29;20284;-86
2024/01/28 11:44:28;;;;;;;15.65;14.45;;;;;;;;;;4930013;29;20261;-83
2024/01/28 11:46:56;;;;;;;17.17;15.13;;;;;;;;;;4932608;29;20247;-84
2024/01/28 11:49:24;;;;;;;16.55;15.07;;;;;;;;;;4939504;29;20681;-85
2024/01/28 11:51:54;;;;;;;16.30;15.10;;;;;;;;;;4922110;29;20225;-84
2024/01/28 11:54:22;;;;;;;16.70;15.60;;;;;;;;;;4919661;29;20621;-86
2024/01/28 11:56:51;;;;;;;17.25;15.95;;;;;;;;;;4945929;29;20649;-85
2024/01/28 11:59:19;;;;;;;24.17;17.15;;;;;;;;;;4940537;29;20233;-85
2024/01/28 12:02:14;;;;;;;18.23;16.40;;;;;;;;;;5256519;23;20196;-84
2024/01/28 12:04:44;;;;;;;17.13;15.50;;;;;;;;;;5201433;23;20794;-89
2024/01/28 12:13:26;;;;;;;19.17;17.57;;;;;;;;;;4884031;29;20650;-84
2024/01/28 12:15:58;;;;;;;18.70;17.00;;;;;;;;;;4851211;29;21237;-85
2024/01/28 12:18:31;;;;;;;19.90;17.10;;;;;;;;;;4851991;29;20598;-85
2024/01/28 12:21:01;;;;;;;18.53;17.10;;;;;;;;;;4867392;29;20625;-84
2024/01/28 12:23:31;;;;;;;20.20;18.53;;;;;;;;;;4852620;29;20644;-83
2024/01/28 12:26:01;;;;;;;19.03;17.70;;;;;;;;;;4864610;29;20588;-84
2024/01/28 12:28:30;;;;;;;18.50;17.00;;;;;;;;;;4876534;29;20702;-83
2024/01/28 12:30:59;;;;;;;19.43;18.03;;;;;;;;;;4863601;29;20608;-84
2024/01/28 12:33:29;;;;;;;19.57;17.63;;;;;;;;;;4893115;29;20647;-85
2024/01/28 12:35:58;;;;;;;18.57;17.33;;;;;;;;;;4880089;29;20635;-85
2024/01/28 12:38:29;;;;;;;20.80;19.07;;;;;;;;;;4882943;29;20653;-86
2024/01/28 12:40:58;;;;;;;19.17;17.67;;;;;;;;;;4881356;29;20631;-86
2024/01/28 12:43:28;;;;;;;19.60;18.07;;;;;;;;;;4887151;29;20652;-85
2024/01/28 12:45:56;;;;;;;19.87;18.47;;;;;;;;;;4894199;29;20692;-85
2024/01/28 12:48:25;;;;;;;19.73;18.17;;;;;;;;;;4866240;29;20668;-85
2024/01/28 12:50:55;;;;;;;19.43;17.80;;;;;;;;;;4892190;29;20642;-86
2024/01/28 12:53:23;;;;;;;19.63;17.50;;;;;;;;;;4883704;29;20642;-84
2024/01/28 12:55:54;;;;;;;19.27;17.83;;;;;;;;;;4891542;29;20632;-85
2024/01/28 12:58:22;;;;;;;19.47;18.00;;;;;;;;;;4866858;29;20612;-85
2024/01/28 13:00:50;;;;;;;19.07;17.90;;;;;;;;;;4851459;29;20636;-87
2024/01/28 13:03:19;;;;;;;19.93;18.30;;;;;;;;;;4869361;29;21187;-85
2024/01/28 13:05:47;;;;;;;21.40;19.60;;;;;;;;;;4861767;29;20668;-85
2024/01/28 13:08:16;;;;;;;21.13;19.33;;;;;;;;;;4879901;29;20728;-85
2024/01/28 13:10:44;;;;;;;20.93;19.13;;;;;;;;;;4878079;29;20657;-86
2024/01/28 13:13:14;;;;;;;22.53;20.60;;;;;;;;;;4835539;29;20645;-85
2024/01/28 13:15:43;;;;;;;21.57;20.07;;;;;;;;;;4872687;29;20636;-86
2024/01/28 13:18:11;;;;;;;20.90;19.30;;;;;;;;;;4888307;29;20690;-85
2024/01/28 13:20:39;;;;;;;21.20;19.40;;;;;;;;;;4880350;29;20674;-85
2024/01/28 13:23:08;;;;;;;21.60;20.00;;;;;;;;;;4878289;29;21116;-84
2024/01/28 13:25:36;;;;;;;22.10;20.13;;;;;;;;;;4882627;29;20704;-85
2024/01/28 13:28:05;;;;;;;22.50;20.77;;;;;;;;;;4852949;29;20690;-86
2024/01/28 13:30:35;;;;;;;22.17;20.60;;;;;;;;;;4861473;29;20698;-87
2024/01/28 13:33:06;;;;;;;20.20;18.97;;;;;;;;;;5623581;23;20621;-87
2024/01/28 13:35:35;;;;;;;21.83;20.10;;;;;;;;;;4919217;29;20657;-85
2024/01/28 13:38:04;;;;;;;20.43;18.80;;;;;;;;;;4882417;29;20694;-90
2024/01/28 13:43:41;;;;;;;20.27;18.60;;;;;;;;;;3935587;23;20668;-88
2024/01/28 13:46:35;;;;;;;21.37;19.77;;;;;;;;;;4923730;29;20636;-85
2024/01/28 13:49:09;;;;;;;20.97;19.47;;;;;;;;;;4941300;29;20682;-84
2024/01/28 13:54:45;;;;;;;19.50;18.30;;;;;;;;;;5027728;23;20661;-90
2024/01/28 14:12:21;;;;;;;19.17;17.83;;;;;;;;;;5120024;23;20664;-86
2024/01/28 14:20:52;;;;;;;20.97;19.23;;;;;;;;;;4961081;23;20694;-90
2024/01/28 14:26:46;;;;;;;20.97;19.37;;;;;;;;;;5091044;23;20662;-86
2024/01/28 14:32:22;;;;;;;20.03;18.53;;;;;;;;;;4904649;29;20634;-87
2024/01/28 14:34:52;;;;;;;19.70;18.27;;;;;;;;;;4903781;29;20617;-88
2024/01/28 14:40:35;;;;;;;20.27;18.80;;;;;;;;;;5633009;23;20639;-86
2024/01/28 14:46:08;;;;;;;24.13;22.23;;;;;;;;;;5576977;23;20669;-83
2024/01/28 14:48:40;;;;;;;27.23;24.87;;;;;;;;;;4925682;29;20640;-87
2024/01/28 14:51:14;;;;;;;21.47;19.87;;;;;;;;;;5207520;23;20722;-90
2024/01/28 14:53:48;;;;;;;22.27;20.43;;;;;;;;;;4888314;29;20656;-89
2024/01/28 15:02:09;;;;;;;23.77;21.93;;;;;;;;;;5450044;23;20680;-84
2024/01/28 15:07:39;;;;;;;30.27;27.40;;;;;;;;;;5460690;23;20661;-87
2024/01/28 15:10:40;;;;;;;24.10;21.63;;;;;;;;;;5496745;23;20673;-87
2024/01/28 15:13:09;;;;;;;21.03;19.60;;;;;;;;;;4899729;29;20626;-87
2024/01/28 15:21:47;;;;;;;22.63;20.93;;;;;;;;;;5560934;23;20682;-85
2024/01/28 15:24:33;;;;;;;21.40;19.87;;;;;;;;;;4906486;29;20668;-88
2024/01/28 15:27:06;;;;;;;23.33;21.20;;;;;;;;;;4922570;29;20630;-87
2024/01/28 15:29:35;;;;;;;22.57;20.70;;;;;;;;;;4915618;29;20666;-88
2024/01/28 15:32:06;;;;;;;39.70;35.50;;;;;;;;;;4902122;29;20630;-88
2024/01/28 15:34:40;;;;;;;26.67;24.20;;;;;;;;;;4895995;29;20615;-89
2024/01/28 15:37:14;;;;;;;30.13;27.07;;;;;;;;;;4938410;29;20631;-86
2024/01/28 15:39:47;;;;;;;25.50;23.33;;;;;;;;;;4943896;29;20662;-84
2024/01/28 15:42:24;;;;;;;23.73;21.88;;;;;;;;;;4939926;29;20228;-86
2024/01/28 15:44:53;;;;;;;26.42;23.80;;;;;;;;;;5093392;23;20252;-84
2024/01/28 15:47:22;;;;;;;23.17;20.80;;;;;;;;;;4937279;29;20190;-84
2024/01/28 15:49:50;;;;;;;23.15;21.05;;;;;;;;;;4930184;29;20238;-83
2024/01/28 15:52:20;;;;;;;23.67;21.25;;;;;;;;;;4918714;29;20296;-82
2024/01/28 15:54:48;;;;;;;21.02;19.10;;;;;;;;;;4920469;29;20316;-82
2024/01/28 16:09:29;;;;;;;23.90;20.55;;;;;;;;;;5091863;23;20221;-86
2024/01/28 16:11:58;;;;;;;22.88;17.80;;;;;;;;;;4888268;29;20201;-87
2024/01/28 16:14:27;;;;;;;26.02;18.63;;;;;;;;;;4944960;29;20668;-88
2024/01/28 16:19:51;;;;;;;27.38;19.85;;;;;;;;;;5673712;23;20212;-87
2024/01/28 16:25:17;;;;;;;18.48;16.33;;;;;;;;;;5119934;23;20237;-86
2024/01/28 16:27:45;;;;;;;20.33;15.98;;;;;;;;;;5240823;23;21556;-86
2024/01/28 16:30:14;;;;;;;17.15;14.00;;;;;;;;;;5067677;23;20327;-84
2024/01/28 16:32:43;;;;;;;19.70;15.40;;;;;;;;;;4908110;29;20288;-84
2024/01/28 16:35:11;;;;;;;22.75;16.88;;;;;;;;;;4907981;29;20633;-84
2024/01/28 16:56:11;;;;;;;21.30;13.10;;;;;;;;;;4911327;29;20639;-85
2024/01/28 17:01:35;;;;;;;20.40;11.93;;;;;;;;;;4772504;27;20230;-85
2024/01/28 17:04:04;;;;;;;16.60;11.63;;;;;;;;;;4875692;29;20711;-84
2024/01/28 17:06:32;;;;;;;15.02;11.82;;;;;;;;;;4885435;29;20222;-84
2024/01/28 17:09:01;;;;;;;16.95;11.10;;;;;;;;;;4887964;29;20225;-84
2024/01/28 17:11:30;;;;;;;16.60;10.52;;;;;;;;;;4916320;29;20210;-84
2024/01/28 17:14:01;;;;;;;15.13;11.02;;;;;;;;;;4909254;29;20229;-84
2024/01/28 17:16:29;;;;;;;21.80;14.07;;;;;;;;;;4910048;29;20202;-84
2024/01/28 17:18:58;;;;;;;22.73;12.40;;;;;;;;;;4874804;29;20247;-84
2024/01/28 17:21:26;;;;;;;15.57;11.65;;;;;;;;;;4889452;29;20237;-84
2024/01/28 17:23:54;;;;;;;13.38;9.65;;;;;;;;;;4893478;29;20226;-85
2024/01/28 17:26:22;;;;;;;18.75;10.15;;;;;;;;;;4892943;29;20222;-84
2024/01/28 17:28:52;;;;;;;15.27;11.35;;;;;;;;;;4897949;29;20242;-84
2024/01/28 17:31:21;;;;;;;19.10;13.20;;;;;;;;;;4889742;29;20219;-84
2024/01/28 17:33:49;;;;;;;19.00;11.60;;;;;;;;;;4888777;29;20290;-84
2024/01/28 17:36:21;;;;;;;19.15;12.73;;;;;;;;;;4891556;29;20227;-83
2024/01/28 17:38:49;;;;;;;28.08;16.38;;;;;;;;;;4910311;29;20238;-84
2024/01/28 17:44:24;;;;;;;58.45;31.63;;;;;;;;;;5106008;23;20294;-83
2024/01/28 17:46:53;;;;;;;45.53;27.98;;;;;;;;;;4937346;29;20365;-83
2024/01/28 17:49:21;;;;;;;32.38;23.30;;;;;;;;;;4925334;29;20249;-81
2024/01/28 17:51:49;;;;;;;31.48;22.67;;;;;;;;;;4923362;29;20228;-82
2024/01/28 17:54:18;;;;;;;27.38;17.73;;;;;;;;;;4934441;29;20294;-82
2024/01/28 17:56:46;;;;;;;25.33;16.90;;;;;;;;;;4918378;29;20678;-82
2024/01/28 17:59:14;;;;;;;25.02;15.55;;;;;;;;;;4926182;29;20301;-82
2024/01/28 18:01:44;;;;;;;21.02;14.05;;;;;;;;;;4944779;28;20257;-82
2024/01/28 18:07:14;;;;;;;40.80;23.10;;;;;;;;;;5141669;23;20224;-82
2024/01/28 18:22:52;;;;;;;52.07;26.27;;;;;;;;;;6132563;22;1266813;-82
2024/01/28 18:25:21;;;;;;;32.85;20.95;;;;;;;;;;6302860;22;20155;-81
2024/01/28 18:27:49;;;;;;;21.60;15.73;;;;;;;;;;6297331;22;20267;-82
2024/01/28 18:30:17;;;;;;;23.92;16.38;;;;;;;;;;6269467;22;20190;-81
2024/01/28 18:32:46;;;;;;;21.73;16.42;;;;;;;;;;6270352;22;20189;-82
2024/01/28 18:35:15;;;;;;;26.90;16.83;;;;;;;;;;6205575;22;20145;-82
2024/01/28 18:40:44;;;;;;;22.33;17.00;;;;;;;;;;6092578;22;20206;-80
2024/01/28 18:43:13;;;;;;;37.72;26.38;;;;;;;;;;6031198;23;20154;-83
2024/01/28 18:45:41;;;;;;;31.77;24.95;;;;;;;;;;6033220;23;20181;-84
2024/01/28 18:51:16;;;;;;;22.27;14.05;;;;;;;;;;6106057;22;20205;-85
2024/01/28 18:53:45;;;;;;;21.23;15.15;;;;;;;;;;6155453;23;20143;-84
2024/01/28 18:59:17;;;;;;;18.80;12.30;;;;;;;;;;6233841;22;20251;-83
2024/01/28 19:04:46;;;;;;;36.25;27.08;;;;;;;;;;6101329;23;20199;-83
2024/01/28 19:07:14;;;;;;;35.40;24.13;;;;;;;;;;6096906;22;20239;-83
2024/01/28 19:09:44;;;;;;;30.40;26.15;;;;;;;;;;6180552;22;20188;-82
2024/01/28 19:12:15;;;;;;;24.52;17.88;;;;;;;;;;6178932;22;20182;-84
2024/01/28 19:14:44;;;;;;;24.25;20.30;;;;;;;;;;6177818;23;20162;-82
2024/01/28 19:17:13;;;;;;;21.98;15.93;;;;;;;;;;6166334;22;20209;-85
2024/01/28 19:19:41;;;;;;;22.15;15.23;;;;;;;;;;6176348;23;20177;-84
2024/01/28 19:22:10;;;;;;;19.50;12.93;;;;;;;;;;6150165;23;20185;-85
2024/01/28 19:24:40;;;;;;;24.92;17.20;;;;;;;;;;6155909;22;20620;-83
2024/01/28 19:27:09;;;;;;;26.35;18.40;;;;;;;;;;6141826;22;20210;-84